sensor_id;sensor_type;location;lat;lon;timestamp;P1;durP1;ratioP1;P2;durP2;ratioP2
8626;SDS011;4351;51.422;6.794;2023-04-19T00:00:39;17.50;;;13.30;;
8626;SDS011;4351;51.422;6.794;2023-04-19T00:03:07;18.17;;;14.33;;
8626;SDS011;4351;51.422;6.794;2023-04-19T00:05:37;18.70;;;14.20;;
8626;SDS011;4351;51.422;6.794;2023-04-19T00:08:05;19.57;;;13.53;;
8626;SDS011;4351;51.422;6.794;2023-04-19T00:10:34;16.73;;;13.43;;
8626;SDS011;4351;51.422;6.794;2023-04-19T00:13:03;20.97;;;14.43;;
8626;SDS011;4351;51.422;6.794;2023-04-19T00:15:30;19.23;;;14.10;;
8626;SDS011;4351;51.422;6.794;2023-04-19T00:18:00;20.30;;;14.90;;
8626;SDS011;4351;51.422;6.794;2023-04-19T00:20:28;18.33;;;13.77;;
8626;SDS011;4351;51.422;6.794;2023-04-19T00:22:56;20.00;;;14.50;;
8626;SDS011;4351;51.422;6.794;2023-04-19T00:25:24;20.57;;;15.53;;
8626;SDS011;4351;51.422;6.794;2023-04-19T00:27:55;17.73;;;14.20;;
8626;SDS011;4351;51.422;6.794;2023-04-19T00:30:23;18.00;;;14.47;;
8626;SDS011;4351;51.422;6.794;2023-04-19T00:32:51;21.00;;;15.03;;
8626;SDS011;4351;51.422;6.794;2023-04-19T00:35:19;20.67;;;15.10;;
8626;SDS011;4351;51.422;6.794;2023-04-19T00:37:47;20.73;;;14.60;;
8626;SDS011;4351;51.422;6.794;2023-04-19T00:40:15;22.33;;;14.60;;
8626;SDS011;4351;51.422;6.794;2023-04-19T00:42:43;19.33;;;14.83;;
8626;SDS011;4351;51.422;6.794;2023-04-19T00:45:12;19.83;;;15.03;;
8626;SDS011;4351;51.422;6.794;2023-04-19T00:47:40;17.63;;;14.47;;
8626;SDS011;4351;51.422;6.794;2023-04-19T00:50:10;17.83;;;14.03;;
8626;SDS011;4351;51.422;6.794;2023-04-19T00:52:39;18.90;;;15.53;;
8626;SDS011;4351;51.422;6.794;2023-04-19T00:55:07;20.13;;;14.77;;
8626;SDS011;4351;51.422;6.794;2023-04-19T00:57:36;21.20;;;15.37;;
8626;SDS011;4351;51.422;6.794;2023-04-19T01:00:05;22.77;;;15.47;;
8626;SDS011;4351;51.422;6.794;2023-04-19T01:02:36;18.67;;;14.40;;
8626;SDS011;4351;51.422;6.794;2023-04-19T01:05:04;17.87;;;13.63;;
8626;SDS011;4351;51.422;6.794;2023-04-19T01:07:33;18.17;;;14.00;;
8626;SDS011;4351;51.422;6.794;2023-04-19T01:10:01;18.67;;;14.00;;
8626;SDS011;4351;51.422;6.794;2023-04-19T01:12:29;21.13;;;14.20;;
8626;SDS011;4351;51.422;6.794;2023-04-19T01:14:57;20.03;;;14.27;;
8626;SDS011;4351;51.422;6.794;2023-04-19T01:17:25;18.70;;;14.40;;
8626;SDS011;4351;51.422;6.794;2023-04-19T01:19:59;18.33;;;13.57;;
8626;SDS011;4351;51.422;6.794;2023-04-19T01:22:30;21.40;;;14.27;;
8626;SDS011;4351;51.422;6.794;2023-04-19T01:24:58;17.53;;;13.33;;
8626;SDS011;4351;51.422;6.794;2023-04-19T01:27:26;17.67;;;13.83;;
8626;SDS011;4351;51.422;6.794;2023-04-19T01:29:56;18.60;;;13.57;;
8626;SDS011;4351;51.422;6.794;2023-04-19T01:32:25;18.03;;;13.70;;
8626;SDS011;4351;51.422;6.794;2023-04-19T01:34:54;17.83;;;13.57;;
8626;SDS011;4351;51.422;6.794;2023-04-19T01:37:22;18.73;;;13.80;;
8626;SDS011;4351;51.422;6.794;2023-04-19T01:39:52;18.73;;;13.53;;
8626;SDS011;4351;51.422;6.794;2023-04-19T01:42:20;21.43;;;14.10;;
8626;SDS011;4351;51.422;6.794;2023-04-19T01:44:48;19.27;;;14.13;;
8626;SDS011;4351;51.422;6.794;2023-04-19T01:47:18;17.60;;;13.73;;
8626;SDS011;4351;51.422;6.794;2023-04-19T01:49:46;18.60;;;13.33;;
8626;SDS011;4351;51.422;6.794;2023-04-19T01:52:14;19.40;;;14.33;;
8626;SDS011;4351;51.422;6.794;2023-04-19T01:54:42;19.00;;;14.10;;
8626;SDS011;4351;51.422;6.794;2023-04-19T01:57:11;18.20;;;13.40;;
8626;SDS011;4351;51.422;6.794;2023-04-19T01:59:41;17.53;;;12.83;;
8626;SDS011;4351;51.422;6.794;2023-04-19T02:02:10;17.80;;;13.67;;
8626;SDS011;4351;51.422;6.794;2023-04-19T02:04:38;20.67;;;14.07;;
8626;SDS011;4351;51.422;6.794;2023-04-19T02:07:06;18.57;;;13.27;;
8626;SDS011;4351;51.422;6.794;2023-04-19T02:09:34;19.27;;;13.07;;
8626;SDS011;4351;51.422;6.794;2023-04-19T02:12:03;20.37;;;13.80;;
8626;SDS011;4351;51.422;6.794;2023-04-19T02:14:32;19.47;;;13.80;;
8626;SDS011;4351;51.422;6.794;2023-04-19T02:17:01;18.13;;;13.50;;
8626;SDS011;4351;51.422;6.794;2023-04-19T02:19:30;17.87;;;13.73;;
8626;SDS011;4351;51.422;6.794;2023-04-19T02:21:57;15.40;;;13.00;;
8626;SDS011;4351;51.422;6.794;2023-04-19T02:24:25;16.13;;;13.07;;
8626;SDS011;4351;51.422;6.794;2023-04-19T02:26:53;18.50;;;14.33;;
8626;SDS011;4351;51.422;6.794;2023-04-19T02:29:21;19.17;;;14.27;;
8626;SDS011;4351;51.422;6.794;2023-04-19T02:31:50;17.03;;;13.17;;
8626;SDS011;4351;51.422;6.794;2023-04-19T02:34:18;19.07;;;14.13;;
8626;SDS011;4351;51.422;6.794;2023-04-19T02:36:46;17.23;;;13.67;;
8626;SDS011;4351;51.422;6.794;2023-04-19T02:39:14;18.03;;;13.30;;
8626;SDS011;4351;51.422;6.794;2023-04-19T02:41:43;18.47;;;13.47;;
8626;SDS011;4351;51.422;6.794;2023-04-19T02:44:11;17.47;;;13.63;;
8626;SDS011;4351;51.422;6.794;2023-04-19T02:46:47;17.33;;;13.00;;
8626;SDS011;4351;51.422;6.794;2023-04-19T02:49:16;19.80;;;12.97;;
8626;SDS011;4351;51.422;6.794;2023-04-19T02:51:44;18.93;;;13.37;;
8626;SDS011;4351;51.422;6.794;2023-04-19T02:54:13;19.23;;;13.20;;
8626;SDS011;4351;51.422;6.794;2023-04-19T02:56:43;16.67;;;12.87;;
8626;SDS011;4351;51.422;6.794;2023-04-19T02:59:11;16.10;;;12.60;;
8626;SDS011;4351;51.422;6.794;2023-04-19T03:01:39;15.53;;;11.50;;
8626;SDS011;4351;51.422;6.794;2023-04-19T03:04:07;16.13;;;11.70;;
8626;SDS011;4351;51.422;6.794;2023-04-19T03:06:36;14.90;;;10.97;;
8626;SDS011;4351;51.422;6.794;2023-04-19T03:09:04;14.73;;;10.53;;
8626;SDS011;4351;51.422;6.794;2023-04-19T03:11:32;13.67;;;10.43;;
8626;SDS011;4351;51.422;6.794;2023-04-19T03:14:01;14.97;;;10.13;;
8626;SDS011;4351;51.422;6.794;2023-04-19T03:16:29;12.63;;;9.67;;
8626;SDS011;4351;51.422;6.794;2023-04-19T03:18:57;12.10;;;9.20;;
8626;SDS011;4351;51.422;6.794;2023-04-19T03:21:29;11.83;;;9.17;;
8626;SDS011;4351;51.422;6.794;2023-04-19T03:23:59;13.37;;;9.20;;
8626;SDS011;4351;51.422;6.794;2023-04-19T03:26:27;12.70;;;9.57;;
8626;SDS011;4351;51.422;6.794;2023-04-19T03:28:56;12.77;;;8.80;;
8626;SDS011;4351;51.422;6.794;2023-04-19T03:31:35;11.93;;;9.23;;
8626;SDS011;4351;51.422;6.794;2023-04-19T03:34:04;11.10;;;9.00;;
8626;SDS011;4351;51.422;6.794;2023-04-19T03:36:38;12.63;;;8.97;;
8626;SDS011;4351;51.422;6.794;2023-04-19T03:39:07;16.13;;;9.80;;
8626;SDS011;4351;51.422;6.794;2023-04-19T03:41:38;14.40;;;8.80;;
8626;SDS011;4351;51.422;6.794;2023-04-19T03:44:33;12.43;;;8.60;;
8626;SDS011;4351;51.422;6.794;2023-04-19T03:47:03;13.67;;;8.63;;
8626;SDS011;4351;51.422;6.794;2023-04-19T03:49:38;13.80;;;9.50;;
8626;SDS011;4351;51.422;6.794;2023-04-19T03:52:06;10.73;;;7.80;;
8626;SDS011;4351;51.422;6.794;2023-04-19T03:54:35;11.67;;;8.27;;
8626;SDS011;4351;51.422;6.794;2023-04-19T03:57:07;12.63;;;7.80;;
8626;SDS011;4351;51.422;6.794;2023-04-19T03:59:38;9.77;;;7.53;;
8626;SDS011;4351;51.422;6.794;2023-04-19T04:02:07;14.50;;;7.73;;
8626;SDS011;4351;51.422;6.794;2023-04-19T04:04:35;10.97;;;7.20;;
8626;SDS011;4351;51.422;6.794;2023-04-19T04:07:04;9.00;;;6.77;;
8626;SDS011;4351;51.422;6.794;2023-04-19T04:09:32;9.27;;;7.17;;
8626;SDS011;4351;51.422;6.794;2023-04-19T04:12:03;11.60;;;6.87;;
8626;SDS011;4351;51.422;6.794;2023-04-19T04:14:31;9.03;;;7.23;;
8626;SDS011;4351;51.422;6.794;2023-04-19T04:17:00;11.07;;;7.57;;
8626;SDS011;4351;51.422;6.794;2023-04-19T04:19:29;8.83;;;6.30;;
8626;SDS011;4351;51.422;6.794;2023-04-19T04:21:58;7.83;;;6.17;;
8626;SDS011;4351;51.422;6.794;2023-04-19T04:24:29;10.93;;;6.70;;
8626;SDS011;4351;51.422;6.794;2023-04-19T04:27:18;9.13;;;6.03;;
8626;SDS011;4351;51.422;6.794;2023-04-19T04:29:48;8.10;;;6.13;;
8626;SDS011;4351;51.422;6.794;2023-04-19T04:32:17;10.70;;;6.57;;
8626;SDS011;4351;51.422;6.794;2023-04-19T04:34:53;7.87;;;5.90;;
8626;SDS011;4351;51.422;6.794;2023-04-19T04:37:32;9.00;;;5.77;;
8626;SDS011;4351;51.422;6.794;2023-04-19T04:40:00;8.40;;;6.30;;
8626;SDS011;4351;51.422;6.794;2023-04-19T04:42:33;7.83;;;5.50;;
8626;SDS011;4351;51.422;6.794;2023-04-19T04:45:05;7.90;;;6.13;;
8626;SDS011;4351;51.422;6.794;2023-04-19T04:47:37;8.67;;;5.90;;
8626;SDS011;4351;51.422;6.794;2023-04-19T04:50:09;9.03;;;5.90;;
8626;SDS011;4351;51.422;6.794;2023-04-19T04:52:38;9.07;;;5.70;;
8626;SDS011;4351;51.422;6.794;2023-04-19T04:55:13;10.13;;;5.60;;
8626;SDS011;4351;51.422;6.794;2023-04-19T04:57:44;8.23;;;5.63;;
8626;SDS011;4351;51.422;6.794;2023-04-19T05:00:21;9.53;;;6.23;;
8626;SDS011;4351;51.422;6.794;2023-04-19T05:02:58;9.03;;;6.30;;
8626;SDS011;4351;51.422;6.794;2023-04-19T05:05:29;9.20;;;5.70;;
8626;SDS011;4351;51.422;6.794;2023-04-19T05:07:56;8.40;;;5.70;;
8626;SDS011;4351;51.422;6.794;2023-04-19T05:10:24;8.27;;;5.97;;
8626;SDS011;4351;51.422;6.794;2023-04-19T05:12:54;8.07;;;5.63;;
8626;SDS011;4351;51.422;6.794;2023-04-19T05:15:22;9.73;;;6.07;;
8626;SDS011;4351;51.422;6.794;2023-04-19T05:17:53;9.40;;;6.03;;
8626;SDS011;4351;51.422;6.794;2023-04-19T05:20:21;8.93;;;5.93;;
8626;SDS011;4351;51.422;6.794;2023-04-19T05:22:57;8.27;;;5.50;;
8626;SDS011;4351;51.422;6.794;2023-04-19T05:25:26;9.07;;;6.50;;
8626;SDS011;4351;51.422;6.794;2023-04-19T05:27:56;8.37;;;6.13;;
8626;SDS011;4351;51.422;6.794;2023-04-19T05:30:28;8.93;;;6.43;;
8626;SDS011;4351;51.422;6.794;2023-04-19T05:32:56;10.27;;;6.77;;
8626;SDS011;4351;51.422;6.794;2023-04-19T05:35:24;9.30;;;6.73;;
8626;SDS011;4351;51.422;6.794;2023-04-19T05:37:53;10.83;;;6.50;;
8626;SDS011;4351;51.422;6.794;2023-04-19T05:40:22;9.00;;;6.57;;
8626;SDS011;4351;51.422;6.794;2023-04-19T05:42:50;9.53;;;6.97;;
8626;SDS011;4351;51.422;6.794;2023-04-19T05:45:20;9.57;;;6.77;;
8626;SDS011;4351;51.422;6.794;2023-04-19T05:47:48;9.27;;;6.70;;
8626;SDS011;4351;51.422;6.794;2023-04-19T05:50:38;11.07;;;7.20;;
8626;SDS011;4351;51.422;6.794;2023-04-19T05:53:32;9.37;;;6.73;;
8626;SDS011;4351;51.422;6.794;2023-04-19T05:56:00;11.07;;;7.17;;
8626;SDS011;4351;51.422;6.794;2023-04-19T05:58:28;9.73;;;6.60;;
8626;SDS011;4351;51.422;6.794;2023-04-19T06:00:57;16.40;;;6.77;;
8626;SDS011;4351;51.422;6.794;2023-04-19T06:03:25;10.30;;;7.20;;
8626;SDS011;4351;51.422;6.794;2023-04-19T06:05:58;10.47;;;7.17;;
8626;SDS011;4351;51.422;6.794;2023-04-19T06:08:27;12.47;;;7.43;;
8626;SDS011;4351;51.422;6.794;2023-04-19T06:10:54;10.37;;;7.50;;
8626;SDS011;4351;51.422;6.794;2023-04-19T06:13:33;11.70;;;6.50;;
8626;SDS011;4351;51.422;6.794;2023-04-19T06:16:02;10.97;;;7.23;;
8626;SDS011;4351;51.422;6.794;2023-04-19T06:18:31;13.77;;;7.17;;
8626;SDS011;4351;51.422;6.794;2023-04-19T06:20:59;9.37;;;6.27;;
8626;SDS011;4351;51.422;6.794;2023-04-19T06:23:27;10.87;;;6.60;;
8626;SDS011;4351;51.422;6.794;2023-04-19T06:25:55;9.47;;;6.83;;
8626;SDS011;4351;51.422;6.794;2023-04-19T06:28:23;9.77;;;6.40;;
8626;SDS011;4351;51.422;6.794;2023-04-19T06:30:52;10.77;;;6.40;;
8626;SDS011;4351;51.422;6.794;2023-04-19T06:33:21;8.77;;;6.60;;
8626;SDS011;4351;51.422;6.794;2023-04-19T06:35:49;11.80;;;6.35;;
8626;SDS011;4351;51.422;6.794;2023-04-19T06:38:17;8.30;;;5.77;;
8626;SDS011;4351;51.422;6.794;2023-04-19T06:40:45;11.80;;;6.03;;
8626;SDS011;4351;51.422;6.794;2023-04-19T06:43:13;8.70;;;6.07;;
8626;SDS011;4351;51.422;6.794;2023-04-19T06:45:41;15.03;;;6.70;;
8626;SDS011;4351;51.422;6.794;2023-04-19T06:48:09;10.07;;;6.23;;
8626;SDS011;4351;51.422;6.794;2023-04-19T06:50:39;7.63;;;5.47;;
8626;SDS011;4351;51.422;6.794;2023-04-19T06:53:08;11.93;;;6.27;;
8626;SDS011;4351;51.422;6.794;2023-04-19T06:55:35;7.50;;;6.10;;
8626;SDS011;4351;51.422;6.794;2023-04-19T06:58:04;8.63;;;6.00;;
8626;SDS011;4351;51.422;6.794;2023-04-19T07:00:35;8.97;;;5.90;;
8626;SDS011;4351;51.422;6.794;2023-04-19T07:03:03;9.77;;;6.10;;
8626;SDS011;4351;51.422;6.794;2023-04-19T07:05:31;10.77;;;5.57;;
8626;SDS011;4351;51.422;6.794;2023-04-19T07:08:02;8.17;;;5.37;;
8626;SDS011;4351;51.422;6.794;2023-04-19T07:10:29;7.83;;;5.43;;
8626;SDS011;4351;51.422;6.794;2023-04-19T07:12:57;8.93;;;5.17;;
8626;SDS011;4351;51.422;6.794;2023-04-19T07:15:25;7.67;;;5.30;;
8626;SDS011;4351;51.422;6.794;2023-04-19T07:17:53;7.00;;;4.80;;
8626;SDS011;4351;51.422;6.794;2023-04-19T07:20:21;8.83;;;5.20;;
8626;SDS011;4351;51.422;6.794;2023-04-19T07:22:49;10.87;;;5.00;;
8626;SDS011;4351;51.422;6.794;2023-04-19T07:25:18;10.60;;;5.30;;
8626;SDS011;4351;51.422;6.794;2023-04-19T07:27:46;10.03;;;5.63;;
8626;SDS011;4351;51.422;6.794;2023-04-19T07:30:14;6.90;;;5.27;;
8626;SDS011;4351;51.422;6.794;2023-04-19T07:32:42;9.80;;;5.47;;
8626;SDS011;4351;51.422;6.794;2023-04-19T07:35:11;8.77;;;5.23;;
8626;SDS011;4351;51.422;6.794;2023-04-19T07:37:40;11.40;;;5.63;;
8626;SDS011;4351;51.422;6.794;2023-04-19T07:40:08;8.73;;;5.57;;
8626;SDS011;4351;51.422;6.794;2023-04-19T07:42:38;8.70;;;5.00;;
8626;SDS011;4351;51.422;6.794;2023-04-19T07:45:06;7.73;;;5.40;;
8626;SDS011;4351;51.422;6.794;2023-04-19T07:47:35;8.17;;;5.20;;
8626;SDS011;4351;51.422;6.794;2023-04-19T07:50:03;7.43;;;5.10;;
8626;SDS011;4351;51.422;6.794;2023-04-19T07:52:32;7.10;;;4.97;;
8626;SDS011;4351;51.422;6.794;2023-04-19T07:55:00;7.43;;;4.87;;
8626;SDS011;4351;51.422;6.794;2023-04-19T07:57:28;9.03;;;4.43;;
8626;SDS011;4351;51.422;6.794;2023-04-19T07:59:58;6.33;;;4.73;;
8626;SDS011;4351;51.422;6.794;2023-04-19T08:02:27;11.17;;;4.70;;
8626;SDS011;4351;51.422;6.794;2023-04-19T08:04:55;8.67;;;4.80;;
8626;SDS011;4351;51.422;6.794;2023-04-19T08:07:24;7.80;;;4.43;;
8626;SDS011;4351;51.422;6.794;2023-04-19T08:09:52;5.77;;;3.90;;
8626;SDS011;4351;51.422;6.794;2023-04-19T08:12:19;10.80;;;4.57;;
8626;SDS011;4351;51.422;6.794;2023-04-19T08:15:06;5.60;;;4.00;;
8626;SDS011;4351;51.422;6.794;2023-04-19T08:17:54;10.90;;;4.83;;
8626;SDS011;4351;51.422;6.794;2023-04-19T08:20:22;6.90;;;4.13;;
8626;SDS011;4351;51.422;6.794;2023-04-19T08:22:52;9.60;;;4.20;;
8626;SDS011;4351;51.422;6.794;2023-04-19T08:25:20;6.30;;;4.03;;
8626;SDS011;4351;51.422;6.794;2023-04-19T08:27:52;8.33;;;4.20;;
8626;SDS011;4351;51.422;6.794;2023-04-19T08:30:21;6.90;;;3.93;;
8626;SDS011;4351;51.422;6.794;2023-04-19T08:32:49;6.07;;;3.70;;
8626;SDS011;4351;51.422;6.794;2023-04-19T08:35:20;6.17;;;4.07;;
8626;SDS011;4351;51.422;6.794;2023-04-19T08:37:48;10.47;;;3.60;;
8626;SDS011;4351;51.422;6.794;2023-04-19T08:40:16;8.23;;;4.33;;
8626;SDS011;4351;51.422;6.794;2023-04-19T08:42:44;5.63;;;3.83;;
8626;SDS011;4351;51.422;6.794;2023-04-19T08:45:12;6.70;;;3.60;;
8626;SDS011;4351;51.422;6.794;2023-04-19T08:47:56;7.37;;;3.73;;
8626;SDS011;4351;51.422;6.794;2023-04-19T08:50:27;8.23;;;3.97;;
8626;SDS011;4351;51.422;6.794;2023-04-19T08:53:06;5.70;;;3.43;;
8626;SDS011;4351;51.422;6.794;2023-04-19T08:55:50;7.90;;;3.60;;
8626;SDS011;4351;51.422;6.794;2023-04-19T08:58:37;6.60;;;3.70;;
8626;SDS011;4351;51.422;6.794;2023-04-19T09:01:25;6.40;;;3.87;;
8626;SDS011;4351;51.422;6.794;2023-04-19T09:04:02;7.43;;;3.90;;
8626;SDS011;4351;51.422;6.794;2023-04-19T09:06:46;7.03;;;3.33;;
8626;SDS011;4351;51.422;6.794;2023-04-19T09:09:15;6.03;;;3.67;;
8626;SDS011;4351;51.422;6.794;2023-04-19T09:11:47;6.87;;;3.77;;
8626;SDS011;4351;51.422;6.794;2023-04-19T09:14:16;7.73;;;3.80;;
8626;SDS011;4351;51.422;6.794;2023-04-19T09:16:46;6.97;;;3.70;;
8626;SDS011;4351;51.422;6.794;2023-04-19T09:19:18;10.43;;;3.83;;
8626;SDS011;4351;51.422;6.794;2023-04-19T09:21:51;5.27;;;3.30;;
8626;SDS011;4351;51.422;6.794;2023-04-19T09:27:09;7.07;;;3.50;;
8626;SDS011;4351;51.422;6.794;2023-04-19T09:29:37;6.23;;;3.20;;
8626;SDS011;4351;51.422;6.794;2023-04-19T09:32:05;5.50;;;3.30;;
8626;SDS011;4351;51.422;6.794;2023-04-19T09:34:34;6.63;;;3.30;;
8626;SDS011;4351;51.422;6.794;2023-04-19T09:37:12;7.90;;;3.20;;
8626;SDS011;4351;51.422;6.794;2023-04-19T09:40:01;4.97;;;3.30;;
8626;SDS011;4351;51.422;6.794;2023-04-19T09:42:48;7.70;;;2.70;;
8626;SDS011;4351;51.422;6.794;2023-04-19T09:45:19;6.27;;;2.63;;
8626;SDS011;4351;51.422;6.794;2023-04-19T09:47:59;5.73;;;3.00;;
8626;SDS011;4351;51.422;6.794;2023-04-19T09:50:29;5.33;;;2.80;;
8626;SDS011;4351;51.422;6.794;2023-04-19T09:53:04;5.17;;;2.30;;
8626;SDS011;4351;51.422;6.794;2023-04-19T09:55:33;5.83;;;2.07;;
8626;SDS011;4351;51.422;6.794;2023-04-19T09:58:23;3.97;;;2.00;;
8626;SDS011;4351;51.422;6.794;2023-04-19T10:01:00;3.60;;;1.80;;
8626;SDS011;4351;51.422;6.794;2023-04-19T10:03:40;4.60;;;2.20;;
8626;SDS011;4351;51.422;6.794;2023-04-19T10:06:13;4.27;;;1.80;;
8626;SDS011;4351;51.422;6.794;2023-04-19T10:09:03;3.67;;;2.20;;
8626;SDS011;4351;51.422;6.794;2023-04-19T10:11:32;3.00;;;2.13;;
8626;SDS011;4351;51.422;6.794;2023-04-19T10:14:06;5.03;;;2.70;;
8626;SDS011;4351;51.422;6.794;2023-04-19T10:16:35;3.50;;;2.60;;
8626;SDS011;4351;51.422;6.794;2023-04-19T10:19:06;9.57;;;2.43;;
8626;SDS011;4351;51.422;6.794;2023-04-19T10:21:37;3.03;;;1.80;;
8626;SDS011;4351;51.422;6.794;2023-04-19T10:24:07;4.97;;;2.10;;
8626;SDS011;4351;51.422;6.794;2023-04-19T10:32:21;4.43;;;3.13;;
8626;SDS011;4351;51.422;6.794;2023-04-19T10:34:50;5.13;;;2.90;;
8626;SDS011;4351;51.422;6.794;2023-04-19T10:37:25;6.83;;;2.93;;
8626;SDS011;4351;51.422;6.794;2023-04-19T10:39:53;6.50;;;2.80;;
8626;SDS011;4351;51.422;6.794;2023-04-19T10:42:21;4.70;;;2.80;;
8626;SDS011;4351;51.422;6.794;2023-04-19T10:47:50;4.87;;;3.10;;
8626;SDS011;4351;51.422;6.794;2023-04-19T10:50:19;4.70;;;3.30;;
8626;SDS011;4351;51.422;6.794;2023-04-19T10:52:51;5.17;;;3.30;;
8626;SDS011;4351;51.422;6.794;2023-04-19T10:55:19;5.43;;;3.43;;
8626;SDS011;4351;51.422;6.794;2023-04-19T10:58:00;7.27;;;2.80;;
8626;SDS011;4351;51.422;6.794;2023-04-19T11:00:29;5.13;;;3.33;;
8626;SDS011;4351;51.422;6.794;2023-04-19T11:03:50;6.27;;;3.37;;
8626;SDS011;4351;51.422;6.794;2023-04-19T11:06:15;4.30;;;3.10;;
8626;SDS011;4351;51.422;6.794;2023-04-19T11:08:47;8.40;;;3.30;;
8626;SDS011;4351;51.422;6.794;2023-04-19T11:11:14;8.17;;;3.80;;
8626;SDS011;4351;51.422;6.794;2023-04-19T11:13:42;4.90;;;3.10;;
8626;SDS011;4351;51.422;6.794;2023-04-19T11:16:11;6.97;;;3.10;;
8626;SDS011;4351;51.422;6.794;2023-04-19T11:18:39;6.33;;;2.83;;
8626;SDS011;4351;51.422;6.794;2023-04-19T11:21:11;3.97;;;2.77;;
8626;SDS011;4351;51.422;6.794;2023-04-19T11:23:39;4.10;;;3.27;;
8626;SDS011;4351;51.422;6.794;2023-04-19T11:26:10;4.43;;;2.97;;
8626;SDS011;4351;51.422;6.794;2023-04-19T11:28:38;5.67;;;3.27;;
8626;SDS011;4351;51.422;6.794;2023-04-19T11:31:06;5.40;;;3.10;;
8626;SDS011;4351;51.422;6.794;2023-04-19T11:33:35;7.07;;;3.33;;
8626;SDS011;4351;51.422;6.794;2023-04-19T11:36:03;8.53;;;3.33;;
8626;SDS011;4351;51.422;6.794;2023-04-19T11:38:38;5.90;;;3.00;;
8626;SDS011;4351;51.422;6.794;2023-04-19T11:41:06;4.90;;;2.80;;
8626;SDS011;4351;51.422;6.794;2023-04-19T11:43:35;6.37;;;3.17;;
8626;SDS011;4351;51.422;6.794;2023-04-19T11:46:04;3.70;;;3.10;;
8626;SDS011;4351;51.422;6.794;2023-04-19T11:48:33;5.53;;;2.97;;
8626;SDS011;4351;51.422;6.794;2023-04-19T11:51:01;6.57;;;3.00;;
8626;SDS011;4351;51.422;6.794;2023-04-19T11:53:30;6.00;;;3.00;;
8626;SDS011;4351;51.422;6.794;2023-04-19T11:56:02;4.20;;;2.80;;
8626;SDS011;4351;51.422;6.794;2023-04-19T11:58:32;7.60;;;3.10;;
8626;SDS011;4351;51.422;6.794;2023-04-19T12:01:05;4.93;;;3.10;;
8626;SDS011;4351;51.422;6.794;2023-04-19T12:03:34;7.33;;;3.43;;
8626;SDS011;4351;51.422;6.794;2023-04-19T12:06:09;5.67;;;3.33;;
8626;SDS011;4351;51.422;6.794;2023-04-19T12:08:41;5.97;;;3.20;;
8626;SDS011;4351;51.422;6.794;2023-04-19T12:11:10;5.53;;;3.57;;
8626;SDS011;4351;51.422;6.794;2023-04-19T12:13:38;4.53;;;3.47;;
8626;SDS011;4351;51.422;6.794;2023-04-19T12:16:08;5.93;;;3.40;;
8626;SDS011;4351;51.422;6.794;2023-04-19T12:18:40;5.47;;;3.40;;
8626;SDS011;4351;51.422;6.794;2023-04-19T12:21:23;10.87;;;3.67;;
8626;SDS011;4351;51.422;6.794;2023-04-19T12:23:56;9.33;;;4.13;;
8626;SDS011;4351;51.422;6.794;2023-04-19T12:26:25;8.67;;;3.73;;
8626;SDS011;4351;51.422;6.794;2023-04-19T12:28:55;5.87;;;3.33;;
8626;SDS011;4351;51.422;6.794;2023-04-19T12:31:25;5.63;;;3.87;;
8626;SDS011;4351;51.422;6.794;2023-04-19T12:33:53;11.43;;;4.33;;
8626;SDS011;4351;51.422;6.794;2023-04-19T12:36:21;8.10;;;3.73;;
8626;SDS011;4351;51.422;6.794;2023-04-19T12:38:49;6.27;;;3.80;;
8626;SDS011;4351;51.422;6.794;2023-04-19T12:41:17;6.27;;;3.80;;
8626;SDS011;4351;51.422;6.794;2023-04-19T12:43:45;6.07;;;4.10;;
8626;SDS011;4351;51.422;6.794;2023-04-19T12:46:13;7.53;;;3.93;;
8626;SDS011;4351;51.422;6.794;2023-04-19T12:48:42;5.90;;;3.63;;
8626;SDS011;4351;51.422;6.794;2023-04-19T12:51:10;5.70;;;3.77;;
8626;SDS011;4351;51.422;6.794;2023-04-19T12:53:40;8.00;;;3.90;;
8626;SDS011;4351;51.422;6.794;2023-04-19T12:56:07;6.07;;;3.90;;
8626;SDS011;4351;51.422;6.794;2023-04-19T12:58:37;8.07;;;3.80;;
8626;SDS011;4351;51.422;6.794;2023-04-19T13:01:05;11.13;;;4.07;;
8626;SDS011;4351;51.422;6.794;2023-04-19T13:03:33;6.80;;;3.83;;
8626;SDS011;4351;51.422;6.794;2023-04-19T13:06:05;6.97;;;3.80;;
8626;SDS011;4351;51.422;6.794;2023-04-19T13:08:33;4.40;;;3.43;;
8626;SDS011;4351;51.422;6.794;2023-04-19T13:11:12;8.07;;;4.03;;
8626;SDS011;4351;51.422;6.794;2023-04-19T13:13:40;8.93;;;3.97;;
8626;SDS011;4351;51.422;6.794;2023-04-19T13:16:08;7.57;;;4.00;;
8626;SDS011;4351;51.422;6.794;2023-04-19T13:18:36;10.83;;;4.20;;
8626;SDS011;4351;51.422;6.794;2023-04-19T13:21:06;8.13;;;3.87;;
8626;SDS011;4351;51.422;6.794;2023-04-19T13:23:34;5.43;;;3.80;;
8626;SDS011;4351;51.422;6.794;2023-04-19T13:26:02;5.50;;;4.20;;
8626;SDS011;4351;51.422;6.794;2023-04-19T13:28:30;6.40;;;3.70;;
8626;SDS011;4351;51.422;6.794;2023-04-19T13:31:01;5.13;;;4.10;;
8626;SDS011;4351;51.422;6.794;2023-04-19T13:33:30;5.00;;;3.63;;
8626;SDS011;4351;51.422;6.794;2023-04-19T13:35:58;5.33;;;3.73;;
8626;SDS011;4351;51.422;6.794;2023-04-19T13:38:27;8.60;;;3.70;;
8626;SDS011;4351;51.422;6.794;2023-04-19T13:40:56;6.47;;;4.00;;
8626;SDS011;4351;51.422;6.794;2023-04-19T13:43:24;8.37;;;4.13;;
8626;SDS011;4351;51.422;6.794;2023-04-19T13:45:52;5.23;;;3.63;;
8626;SDS011;4351;51.422;6.794;2023-04-19T13:48:20;6.30;;;3.67;;
8626;SDS011;4351;51.422;6.794;2023-04-19T13:50:47;6.50;;;4.00;;
8626;SDS011;4351;51.422;6.794;2023-04-19T13:53:17;6.80;;;3.90;;
8626;SDS011;4351;51.422;6.794;2023-04-19T13:55:46;4.27;;;3.40;;
8626;SDS011;4351;51.422;6.794;2023-04-19T13:58:14;5.17;;;3.43;;
8626;SDS011;4351;51.422;6.794;2023-04-19T14:00:42;6.63;;;3.50;;
8626;SDS011;4351;51.422;6.794;2023-04-19T14:03:10;3.80;;;3.23;;
8626;SDS011;4351;51.422;6.794;2023-04-19T14:05:39;6.27;;;3.27;;
8626;SDS011;4351;51.422;6.794;2023-04-19T14:08:07;4.13;;;3.50;;
8626;SDS011;4351;51.422;6.794;2023-04-19T14:10:35;3.93;;;3.10;;
8626;SDS011;4351;51.422;6.794;2023-04-19T14:13:04;6.53;;;3.60;;
8626;SDS011;4351;51.422;6.794;2023-04-19T14:15:32;4.70;;;3.10;;
8626;SDS011;4351;51.422;6.794;2023-04-19T14:18:01;3.90;;;2.80;;
8626;SDS011;4351;51.422;6.794;2023-04-19T14:20:29;7.53;;;3.47;;
8626;SDS011;4351;51.422;6.794;2023-04-19T14:22:57;5.57;;;3.30;;
8626;SDS011;4351;51.422;6.794;2023-04-19T14:25:25;6.00;;;3.57;;
8626;SDS011;4351;51.422;6.794;2023-04-19T14:27:53;5.83;;;3.47;;
8626;SDS011;4351;51.422;6.794;2023-04-19T14:30:22;7.37;;;2.80;;
8626;SDS011;4351;51.422;6.794;2023-04-19T14:32:52;3.50;;;3.07;;
8626;SDS011;4351;51.422;6.794;2023-04-19T14:35:21;5.10;;;3.40;;
8626;SDS011;4351;51.422;6.794;2023-04-19T14:37:49;5.87;;;3.20;;
8626;SDS011;4351;51.422;6.794;2023-04-19T14:40:17;5.10;;;3.27;;
8626;SDS011;4351;51.422;6.794;2023-04-19T14:42:45;7.20;;;3.53;;
8626;SDS011;4351;51.422;6.794;2023-04-19T14:45:13;7.47;;;3.73;;
8626;SDS011;4351;51.422;6.794;2023-04-19T14:47:43;5.57;;;3.03;;
8626;SDS011;4351;51.422;6.794;2023-04-19T14:50:11;5.27;;;3.20;;
8626;SDS011;4351;51.422;6.794;2023-04-19T14:52:38;7.13;;;3.30;;
8626;SDS011;4351;51.422;6.794;2023-04-19T14:55:07;4.20;;;3.27;;
8626;SDS011;4351;51.422;6.794;2023-04-19T14:57:36;4.57;;;3.10;;
8626;SDS011;4351;51.422;6.794;2023-04-19T15:00:04;4.43;;;3.20;;
8626;SDS011;4351;51.422;6.794;2023-04-19T15:02:34;6.73;;;3.00;;
8626;SDS011;4351;51.422;6.794;2023-04-19T15:05:04;4.80;;;3.00;;
8626;SDS011;4351;51.422;6.794;2023-04-19T15:07:33;6.43;;;3.10;;
8626;SDS011;4351;51.422;6.794;2023-04-19T15:10:01;4.37;;;2.50;;
8626;SDS011;4351;51.422;6.794;2023-04-19T15:12:29;4.37;;;2.73;;
8626;SDS011;4351;51.422;6.794;2023-04-19T15:14:57;5.60;;;3.07;;
8626;SDS011;4351;51.422;6.794;2023-04-19T15:17:25;3.87;;;3.10;;
8626;SDS011;4351;51.422;6.794;2023-04-19T15:19:53;4.33;;;3.07;;
8626;SDS011;4351;51.422;6.794;2023-04-19T15:22:22;5.07;;;2.93;;
8626;SDS011;4351;51.422;6.794;2023-04-19T15:24:50;6.13;;;3.03;;
8626;SDS011;4351;51.422;6.794;2023-04-19T15:27:18;4.20;;;2.47;;
8626;SDS011;4351;51.422;6.794;2023-04-19T15:29:46;5.80;;;3.27;;
8626;SDS011;4351;51.422;6.794;2023-04-19T15:32:14;7.40;;;3.20;;
8626;SDS011;4351;51.422;6.794;2023-04-19T15:34:42;4.30;;;2.57;;
8626;SDS011;4351;51.422;6.794;2023-04-19T15:37:10;5.80;;;2.70;;